Rowley, Iowa
Current Conditions -  °F | °C
As of 8:55 PM on Sunday 23 Nov 2014 (Local Time) from KIIB Reporting Station
Haze Haze  
Wind Chill: 32°   Ceiling: 600
Heat Index: 41°   Visibility: 4mi
Dew Point: 41°   Wind: 20mph
Humidity: 100%   Direction: 320°NW
Pressure: 29.26"   Gusts: 28mph
Location:  42.37°N, 91.84°W
Report Text: KIIB 240255Z AUTO 32017G24KT 4SM BR OVC006 05/05 A2926 RMK AO2
Loading
Personal Weather Stations






























Interactive Weather Map New forecast layout! Learn more

10-Day Weather Forecast

Advertisements
Track Severe Weather on mobile